Time;durP1;ratioP1;P1;durP2;ratioP2;P2;SDS_P1;SDS_P2;PMS_P1;PMS_P2;Temp;Humidity;BMP_temperature;BMP_pressure;BME280_temperature;BME280_humidity;BME280_pressure;Samples;Min_cycle;Max_cycle;Signal;HPM_P1;HPM_P2
2021/09/02 00:00:36;;;;;;;3.97;2.65;;;14.00;99.90;;;;;;5095674;28;20078;-71
2021/09/02 00:03:02;;;;;;;6.15;2.70;;;14.00;99.90;;;;;;5094868;28;20044;-71
2021/09/02 00:05:27;;;;;;;5.55;3.15;;;13.90;99.90;;;;;;5094967;28;20063;-71
2021/09/02 00:07:53;;;;;;;4.90;2.88;;;13.90;99.90;;;;;;5096316;28;20064;-71
2021/09/02 00:10:19;;;;;;;4.57;2.85;;;13.80;99.90;;;;;;5096210;28;20032;-71
2021/09/02 00:12:44;;;;;;;4.30;3.28;;;13.80;99.90;;;;;;5096078;28;20036;-71
2021/09/02 00:15:10;;;;;;;4.40;3.05;;;13.80;99.90;;;;;;5095749;28;20039;-71
2021/09/02 00:17:36;;;;;;;4.82;3.05;;;13.70;99.90;;;;;;5096272;28;20119;-71
2021/09/02 00:20:06;;;;;;;3.83;2.53;;;13.70;99.90;;;;;;5094064;28;20048;-71
2021/09/02 00:22:31;;;;;;;5.60;2.83;;;13.60;99.90;;;;;;5096063;28;20051;-72
2021/09/02 00:24:57;;;;;;;5.43;2.90;;;13.60;99.90;;;;;;5094410;28;20040;-72
2021/09/02 00:27:23;;;;;;;2.95;1.92;;;13.50;99.90;;;;;;5096027;28;20072;-72
2021/09/02 00:29:48;;;;;;;2.88;2.10;;;13.60;99.90;;;;;;5095327;28;20032;-72
2021/09/02 00:32:15;;;;;;;4.68;2.05;;;13.60;99.90;;;;;;5095642;28;20032;-72
2021/09/02 00:34:41;;;;;;;3.47;1.80;;;13.50;99.90;;;;;;5094349;28;20079;-72
2021/09/02 00:37:06;;;;;;;3.45;1.83;;;13.50;99.90;;;;;;5094248;28;20072;-72
2021/09/02 00:39:32;;;;;;;3.00;2.10;;;13.40;99.90;;;;;;5095273;28;20067;-72
2021/09/02 00:41:58;;;;;;;3.67;2.20;;;13.40;99.90;;;;;;5077447;28;20075;-72
2021/09/02 00:44:42;;;;;;;2.80;2.10;;;13.30;99.90;;;;;;5094335;28;20044;-72
2021/09/02 00:47:12;;;;;;;3.90;2.50;;;13.30;99.90;;;;;;5094283;28;20047;-72
2021/09/02 00:49:41;;;;;;;3.28;2.58;;;13.30;99.90;;;;;;5094308;28;20036;-72
2021/09/02 00:52:14;;;;;;;3.33;2.25;;;13.30;99.90;;;;;;5095077;28;20036;-71
2021/09/02 00:54:47;;;;;;;5.25;2.47;;;13.30;99.90;;;;;;5094026;28;20393;-71
2021/09/02 00:57:15;;;;;;;3.97;2.60;;;13.30;99.90;;;;;;5095773;28;20047;-72
2021/09/02 00:59:40;;;;;;;3.17;2.00;;;13.20;99.90;;;;;;5093653;28;20040;-72
2021/09/02 01:02:08;;;;;;;3.38;1.92;;;13.20;99.90;;;;;;5095195;28;20040;-72
2021/09/02 01:04:34;;;;;;;4.00;2.00;;;13.10;99.90;;;;;;5094846;28;20052;-72
2021/09/02 01:07:00;;;;;;;3.83;2.35;;;13.10;99.90;;;;;;5095128;28;20036;-72
2021/09/02 01:09:26;;;;;;;5.15;2.42;;;13.10;99.90;;;;;;5093506;28;20036;-72
2021/09/02 01:11:53;;;;;;;6.07;3.17;;;13.10;99.90;;;;;;5093524;28;20039;-72
2021/09/02 01:14:18;;;;;;;3.85;2.78;;;13.10;99.90;;;;;;5093862;28;20039;-71
2021/09/02 01:16:48;;;;;;;4.05;2.50;;;13.10;99.90;;;;;;5094278;28;20040;-71
2021/09/02 01:19:21;;;;;;;3.80;2.40;;;13.10;99.90;;;;;;5094383;28;20038;-72
2021/09/02 01:21:48;;;;;;;5.40;2.97;;;13.10;99.90;;;;;;5094744;28;20036;-71
2021/09/02 01:24:15;;;;;;;4.28;2.40;;;13.10;99.90;;;;;;5094616;28;20054;-71
2021/09/02 01:26:41;;;;;;;3.25;2.25;;;13.10;99.90;;;;;;5094696;28;20036;-72
2021/09/02 01:29:11;;;;;;;5.05;2.63;;;13.10;99.90;;;;;;5094363;28;20040;-72
2021/09/02 01:31:39;;;;;;;2.83;1.70;;;13.10;99.90;;;;;;5076231;28;20036;-71
2021/09/02 01:34:05;;;;;;;3.17;1.75;;;13.00;99.90;;;;;;5094540;28;20400;-72
2021/09/02 01:36:30;;;;;;;2.92;2.00;;;13.00;99.90;;;;;;5094473;28;20048;-72
2021/09/02 01:38:56;;;;;;;4.57;2.85;;;13.00;99.90;;;;;;5094198;28;20575;-72
2021/09/02 01:41:21;;;;;;;4.70;2.28;;;13.00;99.90;;;;;;5094130;28;20044;-71
2021/09/02 01:43:50;;;;;;;3.53;2.08;;;13.00;99.90;;;;;;5094503;28;20036;-71
2021/09/02 01:46:16;;;;;;;3.55;1.70;;;13.00;99.90;;;;;;5094248;28;20116;-71
2021/09/02 01:48:41;;;;;;;3.13;1.60;;;13.00;99.90;;;;;;5093305;28;20076;-72
2021/09/02 01:51:07;;;;;;;2.53;1.33;;;12.90;99.90;;;;;;5093096;28;20035;-71
2021/09/02 01:53:32;;;;;;;3.28;1.77;;;12.90;99.90;;;;;;5094151;28;20538;-72
2021/09/02 01:55:58;;;;;;;1.45;1.13;;;12.90;99.90;;;;;;5092914;28;20475;-72
2021/09/02 01:58:24;;;;;;;4.78;1.48;;;12.90;99.90;;;;;;5093961;28;20040;-72
2021/09/02 02:00:50;;;;;;;1.52;1.13;;;12.90;99.90;;;;;;5093995;28;20032;-71
2021/09/02 02:03:15;;;;;;;2.88;1.30;;;12.80;99.90;;;;;;5092604;28;20412;-71
2021/09/02 02:05:41;;;;;;;2.05;0.70;;;12.80;99.90;;;;;;5093839;28;20039;-71
2021/09/02 02:08:14;;;;;;;1.70;0.80;;;12.70;99.90;;;;;;5093890;28;20507;-71
2021/09/02 02:10:40;;;;;;;2.17;0.95;;;12.70;99.90;;;;;;5092422;28;20491;-72
2021/09/02 02:13:05;;;;;;;2.25;1.13;;;12.60;99.90;;;;;;5093099;28;20040;-72
2021/09/02 02:15:31;;;;;;;1.67;0.90;;;12.70;99.90;;;;;;5093957;28;20427;-72
2021/09/02 02:17:57;;;;;;;3.35;0.95;;;12.60;99.90;;;;;;5075685;28;20044;-72
2021/09/02 02:20:23;;;;;;;1.42;0.80;;;12.60;99.90;;;;;;5093226;28;20036;-72
2021/09/02 02:22:49;;;;;;;2.85;1.10;;;12.60;99.90;;;;;;5093780;28;20116;-72
2021/09/02 02:25:16;;;;;;;1.50;0.93;;;12.60;99.90;;;;;;5093817;28;20118;-72
2021/09/02 02:27:43;;;;;;;2.33;1.15;;;12.60;99.90;;;;;;5092901;28;20441;-71
2021/09/02 02:30:12;;;;;;;3.22;1.67;;;12.60;99.90;;;;;;5093462;28;20127;-72
2021/09/02 02:32:38;;;;;;;3.03;2.05;;;12.60;99.90;;;;;;5093410;28;20389;-71
2021/09/02 02:35:04;;;;;;;4.63;2.17;;;12.50;99.90;;;;;;5093534;28;20043;-72
2021/09/02 02:37:30;;;;;;;2.30;1.75;;;12.50;99.90;;;;;;5092541;28;20412;-72
2021/09/02 02:39:56;;;;;;;3.63;2.22;;;12.50;99.90;;;;;;5093207;28;20123;-72
2021/09/02 02:42:22;;;;;;;6.30;2.03;;;12.50;99.90;;;;;;5093450;28;20032;-72
2021/09/02 02:44:47;;;;;;;3.00;1.55;;;12.50;99.90;;;;;;5093528;28;20040;-72
2021/09/02 02:47:13;;;;;;;2.50;1.40;;;12.50;99.90;;;;;;5093440;28;20055;-72
2021/09/02 02:49:40;;;;;;;2.50;1.48;;;12.50;99.90;;;;;;5093060;28;20040;-72
2021/09/02 02:52:08;;;;;;;1.95;1.30;;;12.50;99.90;;;;;;5091878;28;20032;-72
2021/09/02 02:54:33;;;;;;;1.58;0.82;;;12.50;99.90;;;;;;5093228;28;20065;-72
2021/09/02 02:56:59;;;;;;;5.13;1.35;;;12.50;99.90;;;;;;5093441;28;20040;-71
2021/09/02 02:59:25;;;;;;;4.25;1.23;;;12.50;99.90;;;;;;5092041;28;20485;-71
2021/09/02 03:01:50;;;;;;;2.03;1.30;;;12.50;99.90;;;;;;5093025;28;20081;-71
2021/09/02 03:04:16;;;;;;;1.90;1.50;;;12.50;99.90;;;;;;5093283;28;20114;-71
2021/09/02 03:06:41;;;;;;;2.08;1.30;;;12.50;99.90;;;;;;5092052;28;20043;-71
2021/09/02 03:09:07;;;;;;;1.85;1.38;;;12.40;99.90;;;;;;5092882;28;20119;-71
2021/09/02 03:11:33;;;;;;;2.67;1.50;;;12.40;99.90;;;;;;5093427;28;20040;-71
2021/09/02 03:13:59;;;;;;;2.35;1.73;;;12.40;99.90;;;;;;5091710;28;20043;-71
2021/09/02 03:16:25;;;;;;;3.67;2.58;;;12.40;99.90;;;;;;5092869;28;20503;-71
2021/09/02 03:18:51;;;;;;;3.72;2.53;;;12.40;99.90;;;;;;5092581;28;20063;-71
2021/09/02 03:21:17;;;;;;;3.88;2.60;;;12.40;99.90;;;;;;5093068;28;20043;-71
2021/09/02 03:23:43;;;;;;;4.80;3.15;;;12.40;99.90;;;;;;5091942;28;20557;-71
2021/09/02 03:26:08;;;;;;;4.55;3.42;;;12.40;99.90;;;;;;5092977;28;20072;-71
2021/09/02 03:28:34;;;;;;;5.57;4.05;;;12.40;99.90;;;;;;5092441;28;20044;-72
2021/09/02 03:31:00;;;;;;;8.95;4.40;;;12.40;99.90;;;;;;5093038;28;20074;-72
2021/09/02 03:33:25;;;;;;;5.82;3.85;;;12.50;99.90;;;;;;5092847;28;20044;-72
2021/09/02 03:35:51;;;;;;;5.13;2.90;;;12.50;99.90;;;;;;5091539;28;20051;-72
2021/09/02 03:38:17;;;;;;;3.80;2.00;;;12.50;99.90;;;;;;5093186;28;20115;-72
2021/09/02 03:40:42;;;;;;;3.38;1.70;;;12.60;99.90;;;;;;5096339;28;20488;-71
2021/09/02 03:43:08;;;;;;;3.30;1.73;;;12.60;99.90;;;;;;5095248;28;20109;-72
2021/09/02 03:45:34;;;;;;;3.55;1.48;;;12.60;99.90;;;;;;5097186;28;20080;-72
2021/09/02 03:48:00;;;;;;;18.70;2.47;;;12.60;99.90;;;;;;5095113;28;20047;-71
2021/09/02 03:50:25;;;;;;;2.67;1.60;;;12.70;99.90;;;;;;5096270;28;20063;-72
2021/09/02 03:52:51;;;;;;;2.00;1.42;;;12.70;99.90;;;;;;5095057;28;20043;-71
2021/09/02 03:55:17;;;;;;;3.47;2.05;;;12.60;99.90;;;;;;5096309;28;20054;-72
2021/09/02 03:57:42;;;;;;;2.80;1.70;;;12.70;99.90;;;;;;5096815;28;20040;-72
2021/09/02 04:00:11;;;;;;;3.17;1.75;;;12.70;99.90;;;;;;5095929;28;20141;-72
2021/09/02 04:02:37;;;;;;;2.60;1.98;;;12.70;99.90;;;;;;5095782;28;20039;-72
2021/09/02 04:05:05;;;;;;;3.33;2.00;;;12.70;99.90;;;;;;5094827;28;20408;-72
2021/09/02 04:07:30;;;;;;;5.28;2.38;;;12.70;99.90;;;;;;5096424;28;20199;-72
2021/09/02 04:09:56;;;;;;;5.65;3.05;;;12.70;99.90;;;;;;5095727;28;20036;-72
2021/09/02 04:12:21;;;;;;;7.60;3.72;;;12.80;99.90;;;;;;5096361;28;20067;-72
2021/09/02 04:14:47;;;;;;;6.93;3.13;;;12.90;99.90;;;;;;5095879;28;20032;-71
2021/09/02 04:17:13;;;;;;;5.63;3.47;;;12.80;99.90;;;;;;5095077;28;20120;-72
2021/09/02 04:19:41;;;;;;;5.22;3.00;;;12.90;99.90;;;;;;5095454;28;20483;-72
2021/09/02 04:22:07;;;;;;;5.45;3.58;;;12.90;99.90;;;;;;5095736;28;20511;-72
2021/09/02 04:24:32;;;;;;;6.95;4.07;;;12.90;99.90;;;;;;5094267;28;20132;-71
2021/09/02 04:26:58;;;;;;;5.95;3.38;;;12.90;99.90;;;;;;5095795;28;20089;-71
2021/09/02 04:29:24;;;;;;;6.55;3.42;;;12.90;99.90;;;;;;5095278;28;20043;-72
2021/09/02 04:31:49;;;;;;;6.22;3.63;;;12.90;99.90;;;;;;5095763;28;20035;-72
2021/09/02 04:34:15;;;;;;;7.03;3.67;;;12.90;99.90;;;;;;5095626;28;20036;-72
2021/09/02 04:36:44;;;;;;;6.68;3.85;;;13.00;99.90;;;;;;5094216;28;20044;-72
2021/09/02 04:39:09;;;;;;;8.18;4.18;;;13.00;99.90;;;;;;5095231;28;20039;-72
2021/09/02 04:41:35;;;;;;;6.63;4.13;;;13.00;99.90;;;;;;5095316;28;20369;-72
2021/09/02 04:44:01;;;;;;;6.43;3.35;;;13.00;99.90;;;;;;5093851;28;20143;-72
2021/09/02 04:46:26;;;;;;;7.32;4.00;;;13.00;99.90;;;;;;5095566;28;20054;-72
2021/09/02 04:48:52;;;;;;;7.93;4.15;;;13.00;99.90;;;;;;5094959;28;20036;-72
2021/09/02 04:51:18;;;;;;;7.75;4.53;;;13.10;99.90;;;;;;5094600;28;20511;-72
2021/09/02 04:53:44;;;;;;;8.68;5.28;;;13.10;99.90;;;;;;5094312;28;20487;-72
2021/09/02 04:56:11;;;;;;;10.57;4.75;;;13.10;99.90;;;;;;5094998;28;20024;-72
2021/09/02 04:58:37;;;;;;;7.85;3.75;;;13.10;99.90;;;;;;5095048;28;20082;-72
2021/09/02 05:01:03;;;;;;;8.32;4.28;;;13.20;99.90;;;;;;5093673;28;20040;-72
2021/09/02 05:03:29;;;;;;;9.50;4.43;;;13.20;99.90;;;;;;5095227;28;20123;-72
2021/09/02 05:05:55;;;;;;;6.93;3.90;;;13.20;99.90;;;;;;5094870;28;20032;-72
2021/09/02 05:08:22;;;;;;;5.75;3.88;;;13.20;99.90;;;;;;5094835;28;20119;-72
2021/09/02 05:10:48;;;;;;;6.53;4.35;;;13.20;99.90;;;;;;5094227;28;20040;-72
2021/09/02 05:13:14;;;;;;;8.38;4.85;;;13.20;99.90;;;;;;5094933;28;20035;-70
2021/09/02 05:15:39;;;;;;;7.55;4.65;;;13.20;99.90;;;;;;5094847;28;20503;-70
2021/09/02 05:18:05;;;;;;;7.32;4.68;;;13.30;99.90;;;;;;5094878;28;20121;-70
2021/09/02 05:20:30;;;;;;;8.70;4.50;;;13.30;99.90;;;;;;5094359;28;20127;-70
2021/09/02 05:22:56;;;;;;;7.57;4.47;;;13.30;99.90;;;;;;5094745;28;20039;-70
2021/09/02 05:25:22;;;;;;;6.85;4.47;;;13.30;99.90;;;;;;5093210;28;20554;-70
2021/09/02 05:27:50;;;;;;;10.98;4.78;;;13.40;99.90;;;;;;5093106;28;20039;-70
2021/09/02 05:30:17;;;;;;;13.55;5.43;;;13.40;99.90;;;;;;5094453;28;20032;-69
2021/09/02 05:32:42;;;;;;;7.25;4.57;;;13.40;99.90;;;;;;5092757;28;20365;-70
2021/09/02 05:35:09;;;;;;;8.35;4.80;;;13.40;99.90;;;;;;5093103;28;20093;-70
2021/09/02 05:37:35;;;;;;;14.07;6.00;;;13.40;99.90;;;;;;5094316;28;20463;-70
2021/09/02 05:40:01;;;;;;;10.63;5.38;;;13.50;99.90;;;;;;5093873;28;20027;-70
2021/09/02 05:42:27;;;;;;;10.27;5.50;;;13.50;99.90;;;;;;5094117;28;20051;-70
2021/09/02 05:44:52;;;;;;;11.07;5.30;;;13.60;99.90;;;;;;5094227;28;20051;-70
2021/09/02 05:47:18;;;;;;;9.13;6.03;;;13.60;99.90;;;;;;5092856;28;20047;-70
2021/09/02 05:49:43;;;;;;;9.20;5.65;;;13.60;99.90;;;;;;5093828;28;20040;-69
2021/09/02 05:52:09;;;;;;;10.18;5.68;;;13.70;99.90;;;;;;5094396;28;20109;-71
2021/09/02 05:54:34;;;;;;;9.05;5.05;;;13.70;99.90;;;;;;5093801;28;20373;-71
2021/09/02 05:57:00;;;;;;;8.88;5.30;;;13.70;99.90;;;;;;5093866;28;20071;-71
2021/09/02 05:59:25;;;;;;;10.93;5.90;;;13.70;99.90;;;;;;5093757;28;20123;-71
2021/09/02 06:01:51;;;;;;;11.35;5.05;;;13.70;99.90;;;;;;5092601;28;20043;-71
2021/09/02 06:04:17;;;;;;;10.00;5.65;;;13.70;99.90;;;;;;5093790;28;20051;-71
2021/09/02 06:06:42;;;;;;;10.63;5.97;;;13.70;99.90;;;;;;5092743;28;20036;-71
2021/09/02 06:09:08;;;;;;;9.38;5.78;;;13.80;99.90;;;;;;5093602;28;20047;-72
2021/09/02 06:11:34;;;;;;;9.65;5.60;;;13.80;99.90;;;;;;5093787;28;20119;-71
2021/09/02 06:14:00;;;;;;;9.10;6.15;;;13.90;99.90;;;;;;5093860;28;20093;-71
2021/09/02 06:16:26;;;;;;;11.63;7.40;;;13.90;99.90;;;;;;5093871;28;20039;-71
2021/09/02 06:18:51;;;;;;;12.32;6.82;;;13.90;99.90;;;;;;5075158;28;20036;-72
2021/09/02 06:21:17;;;;;;;14.18;7.47;;;13.90;99.90;;;;;;5093890;28;20028;-71
2021/09/02 06:23:43;;;;;;;11.48;6.88;;;13.90;99.90;;;;;;5092527;28;20495;-71
2021/09/02 06:26:09;;;;;;;12.35;7.00;;;14.00;99.90;;;;;;5093727;28;20090;-71
2021/09/02 06:28:34;;;;;;;12.90;7.18;;;14.00;99.90;;;;;;5093424;28;20120;-72
2021/09/02 06:31:00;;;;;;;10.93;6.88;;;14.10;99.90;;;;;;5093569;28;20164;-71
2021/09/02 06:33:25;;;;;;;15.75;7.00;;;14.10;99.90;;;;;;5092346;28;20042;-71
2021/09/02 06:35:51;;;;;;;16.30;7.63;;;14.10;99.90;;;;;;5093820;28;20391;-71
2021/09/02 06:38:17;;;;;;;15.05;7.28;;;14.20;99.90;;;;;;5093512;28;20100;-71
2021/09/02 06:40:42;;;;;;;11.65;7.10;;;14.20;99.90;;;;;;5092930;28;20055;-71
2021/09/02 06:43:08;;;;;;;15.23;8.07;;;14.30;99.90;;;;;;5093403;28;20503;-72
2021/09/02 06:45:33;;;;;;;12.63;7.65;;;14.30;99.90;;;;;;5093725;28;20040;-71
2021/09/02 06:47:59;;;;;;;15.32;8.60;;;14.30;99.90;;;;;;5092424;28;20048;-71
2021/09/02 06:50:25;;;;;;;18.65;8.68;;;14.40;99.90;;;;;;5092212;28;20489;-71
2021/09/02 06:52:50;;;;;;;14.45;8.70;;;14.40;99.90;;;;;;5092085;28;20040;-72
2021/09/02 06:55:16;;;;;;;15.45;8.63;;;14.40;99.90;;;;;;5092016;28;20082;-71
2021/09/02 06:57:42;;;;;;;15.02;7.93;;;14.40;99.90;;;;;;5091866;28;20056;-71
2021/09/02 07:00:09;;;;;;;14.48;7.15;;;14.40;99.90;;;;;;5091471;28;20071;-71
2021/09/02 07:02:35;;;;;;;12.00;7.05;;;14.50;99.90;;;;;;5093337;28;20473;-71
2021/09/02 07:05:04;;;;;;;12.57;7.47;;;14.60;99.90;;;;;;5074916;28;20076;-71
2021/09/02 07:07:30;;;;;;;15.25;7.65;;;14.60;99.90;;;;;;5093360;28;20076;-71
2021/09/02 07:09:56;;;;;;;11.27;6.43;;;14.70;99.90;;;;;;5091293;28;20063;-71
2021/09/02 07:12:21;;;;;;;14.85;8.05;;;14.70;99.90;;;;;;5093111;28;20089;-71
2021/09/02 07:14:47;;;;;;;14.68;8.02;;;14.70;99.90;;;;;;5094327;28;20040;-71
2021/09/02 07:17:12;;;;;;;14.48;7.93;;;14.80;99.90;;;;;;5096029;28;20052;-71
2021/09/02 07:19:38;;;;;;;11.65;7.65;;;14.90;99.90;;;;;;5095249;28;20042;-72
2021/09/02 07:22:07;;;;;;;11.00;7.93;;;14.90;99.90;;;;;;5097034;28;20096;-71
2021/09/02 07:24:32;;;;;;;22.63;8.57;;;15.00;99.90;;;;;;5095524;28;20432;-72
2021/09/02 07:26:58;;;;;;;15.77;9.88;;;15.00;99.90;;;;;;5096808;28;20040;-72
2021/09/02 07:29:24;;;;;;;14.10;8.43;;;15.00;99.90;;;;;;5096417;28;20036;-72
2021/09/02 07:31:49;;;;;;;14.52;8.57;;;15.10;99.90;;;;;;5095467;28;20036;-71
2021/09/02 07:34:15;;;;;;;17.83;9.32;;;15.10;99.90;;;;;;5096690;28;20412;-71
2021/09/02 07:36:41;;;;;;;16.63;8.55;;;15.20;99.90;;;;;;5096146;28;20036;-71
2021/09/02 07:39:09;;;;;;;18.83;9.35;;;15.20;99.90;;;;;;5096857;28;20036;-72
2021/09/02 07:41:35;;;;;;;16.70;8.68;;;15.20;99.90;;;;;;5096791;28;20031;-71
2021/09/02 07:44:01;;;;;;;14.77;8.50;;;15.30;99.90;;;;;;5096718;28;20119;-72
2021/09/02 07:46:26;;;;;;;12.57;9.25;;;15.30;99.90;;;;;;5096906;28;20455;-70
2021/09/02 07:48:52;;;;;;;13.07;9.00;;;15.40;99.90;;;;;;5095509;28;20040;-72
2021/09/02 07:51:21;;;;;;;14.82;9.57;;;15.40;99.90;;;;;;5096213;28;20377;-72
2021/09/02 07:53:47;;;;;;;12.07;8.40;;;15.50;99.90;;;;;;5096543;28;20075;-72
2021/09/02 07:56:13;;;;;;;16.38;8.98;;;15.50;99.90;;;;;;5096722;28;20050;-72
2021/09/02 07:58:38;;;;;;;14.70;8.68;;;15.60;99.90;;;;;;5096265;28;20047;-72
2021/09/02 08:01:10;;;;;;;22.65;9.52;;;15.60;99.90;;;;;;5096395;28;20036;-71
2021/09/02 08:03:39;;;;;;;15.63;8.55;;;15.70;99.90;;;;;;5078853;28;20543;-72
2021/09/02 08:06:04;;;;;;;19.33;9.48;;;15.70;99.90;;;;;;5095975;28;20079;-72
2021/09/02 08:08:30;;;;;;;22.52;9.05;;;15.80;99.90;;;;;;5094447;28;20040;-70
2021/09/02 08:10:56;;;;;;;15.70;8.80;;;15.80;99.90;;;;;;5095945;28;20040;-69
2021/09/02 08:13:22;;;;;;;20.83;8.48;;;15.90;99.90;;;;;;5096154;28;20519;-70
2021/09/02 08:15:48;;;;;;;13.93;9.10;;;15.90;99.90;;;;;;5094536;28;20071;-69
2021/09/02 08:18:13;;;;;;;18.90;8.77;;;15.90;99.90;;;;;;5094613;28;20123;-70
2021/09/02 08:20:40;;;;;;;16.30;8.52;;;15.90;99.90;;;;;;5095363;28;20192;-69
2021/09/02 08:23:05;;;;;;;15.02;7.80;;;16.00;99.90;;;;;;5095614;28;20488;-70
2021/09/02 08:25:31;;;;;;;15.90;7.60;;;16.00;99.90;;;;;;5094766;28;20139;-69
2021/09/02 08:27:57;;;;;;;14.68;8.43;;;16.10;99.90;;;;;;5095667;28;20050;-70
2021/09/02 08:30:25;;;;;;;19.08;8.65;;;16.10;99.90;;;;;;5095225;28;20088;-70
2021/09/02 08:32:52;;;;;;;20.17;8.05;;;16.10;99.90;;;;;;5078146;28;20487;-71
2021/09/02 08:35:24;;;;;;;16.67;8.07;;;16.10;99.90;;;;;;5095523;28;20399;-71
2021/09/02 08:37:56;;;;;;;14.60;7.88;;;16.20;99.90;;;;;;5095578;28;20468;-71
2021/09/02 08:40:24;;;;;;;16.25;8.18;;;16.20;99.90;;;;;;5093830;28;20044;-71
2021/09/02 08:42:51;;;;;;;15.90;7.35;;;16.20;99.90;;;;;;5077760;28;20080;-71
2021/09/02 08:45:17;;;;;;;16.75;7.90;;;16.20;99.90;;;;;;5095734;28;20032;-71
2021/09/02 08:47:47;;;;;;;16.25;7.70;;;16.30;99.90;;;;;;5095184;28;20458;-71
2021/09/02 08:50:13;;;;;;;16.95;7.97;;;16.30;99.90;;;;;;5093636;28;20083;-71
2021/09/02 08:52:38;;;;;;;20.17;8.18;;;16.20;99.90;;;;;;5094018;28;20086;-71
2021/09/02 08:55:04;;;;;;;18.63;7.72;;;16.30;99.90;;;;;;5095346;28;20040;-70
2021/09/02 08:57:31;;;;;;;18.73;7.05;;;16.30;99.90;;;;;;5094265;28;20480;-71
2021/09/02 08:59:57;;;;;;;13.27;6.95;;;16.40;99.90;;;;;;5094877;28;20116;-70
2021/09/02 09:02:28;;;;;;;13.70;6.78;;;16.40;99.90;;;;;;5094916;28;20040;-70
2021/09/02 09:05:04;;;;;;;16.52;6.95;;;16.40;99.90;;;;;;5093673;28;20048;-70
2021/09/02 09:07:32;;;;;;;11.73;5.72;;;16.40;99.90;;;;;;5094060;28;20043;-70
2021/09/02 09:09:58;;;;;;;14.65;6.03;;;16.50;99.90;;;;;;5094717;28;20129;-71
2021/09/02 09:12:42;;;;;;;21.15;7.20;;;16.60;99.90;;;;;;5094661;28;20492;-70
2021/09/02 09:15:14;;;;;;;15.15;6.28;;;16.80;99.90;;;;;;5094674;28;20051;-72
2021/09/02 09:17:41;;;;;;;13.93;6.07;;;16.90;99.90;;;;;;5092634;28;20040;-72
2021/09/02 09:20:09;;;;;;;11.10;5.93;;;16.90;99.90;;;;;;5086313;28;20056;-72
2021/09/02 09:22:38;;;;;;;14.27;6.25;;;17.00;99.90;;;;;;5093706;28;20036;-72
2021/09/02 09:25:09;;;;;;;12.52;6.28;;;17.10;99.90;;;;;;5095298;28;20476;-72
2021/09/02 09:27:54;;;;;;;13.23;5.72;;;17.30;99.90;;;;;;5076553;28;20051;-72
2021/09/02 09:30:25;;;;;;;12.50;5.78;;;17.40;99.90;;;;;;5094336;28;20488;-73
2021/09/02 09:33:05;;;;;;;17.08;5.65;;;17.40;99.90;;;;;;5094924;28;20043;-72
2021/09/02 09:35:33;;;;;;;11.57;5.60;;;17.50;99.90;;;;;;5095030;28;20036;-73
2021/09/02 09:38:22;;;;;;;14.60;5.80;;;17.60;99.90;;;;;;5092734;28;20048;-73
2021/09/02 09:40:51;;;;;;;13.50;6.13;;;17.60;99.90;;;;;;5094099;28;20093;-72
2021/09/02 09:43:24;;;;;;;14.48;5.50;;;17.60;99.90;;;;;;5094266;28;20040;-73
2021/09/02 09:46:08;;;;;;;13.07;5.55;;;17.70;99.90;;;;;;5094163;28;20093;-72
2021/09/02 09:48:37;;;;;;;12.25;5.53;;;17.60;99.90;;;;;;5094380;28;20047;-72
2021/09/02 09:51:15;;;;;;;11.10;5.38;;;17.70;99.90;;;;;;5092845;28;20040;-71
2021/09/02 09:53:47;;;;;;;14.27;6.85;;;17.70;99.90;;;;;;5094591;28;20416;-71
2021/09/02 09:56:13;;;;;;;14.45;6.32;;;17.60;99.90;;;;;;5092840;28;20122;-72
2021/09/02 09:58:40;;;;;;;13.80;6.03;;;17.80;99.90;;;;;;5088377;28;20384;-72
2021/09/02 10:01:06;;;;;;;14.75;5.40;;;17.80;99.90;;;;;;5073569;28;20032;-73
2021/09/02 10:03:34;;;;;;;13.13;5.65;;;17.70;99.90;;;;;;5073556;28;20373;-73
2021/09/02 10:06:05;;;;;;;14.52;5.47;;;17.80;99.90;;;;;;5073875;28;20050;-73
2021/09/02 10:08:34;;;;;;;9.20;4.53;;;17.90;99.90;;;;;;5055148;28;20059;-73
2021/09/02 10:11:02;;;;;;;13.48;5.28;;;18.00;99.90;;;;;;5072144;28;20076;-73
2021/09/02 10:13:28;;;;;;;9.90;4.95;;;18.00;99.90;;;;;;5073486;28;20119;-73
2021/09/02 10:15:55;;;;;;;9.95;5.03;;;18.00;99.90;;;;;;5073492;28;20079;-72
2021/09/02 10:18:21;;;;;;;9.65;5.13;;;18.10;99.90;;;;;;5072576;28;20044;-72
2021/09/02 10:20:47;;;;;;;15.95;5.72;;;18.10;99.90;;;;;;5073041;28;20043;-72
2021/09/02 10:23:20;;;;;;;9.60;4.25;;;18.20;99.90;;;;;;5073275;28;20051;-72
2021/09/02 10:25:45;;;;;;;;;;;18.30;99.90;;;;;;5073676;28;20532;-73
2021/09/02 10:28:21;;;;;;;7.68;4.03;;;18.20;99.90;;;;;;5073464;28;19917;-72
2021/09/02 10:30:49;;;;;;;9.07;4.30;;;18.30;99.90;;;;;;5073259;28;20036;-73
2021/09/02 10:33:35;;;;;;;12.98;6.20;;;18.40;99.90;;;;;;5073235;28;20549;-72
2021/09/02 10:36:23;;;;;;;9.35;4.20;;;18.50;99.90;;;;;;5073126;28;20051;-72
2021/09/02 10:38:56;;;;;;;9.00;4.40;;;18.40;99.90;;;;;;5072846;28;20041;-73
2021/09/02 10:41:34;;;;;;;9.50;4.72;;;18.40;99.90;;;;;;5073263;28;20036;-73
2021/09/02 10:44:00;;;;;;;13.60;4.97;;;18.40;99.90;;;;;;5071829;28;20087;-73
2021/09/02 10:46:42;;;;;;;9.35;3.88;;;18.50;99.90;;;;;;5072953;28;20078;-73
2021/09/02 10:49:24;;;;;;;11.75;4.30;;;18.50;99.90;;;;;;5053776;28;20124;-73
2021/09/02 10:51:52;;;;;;;9.25;3.90;;;18.40;99.90;;;;;;5072992;28;20044;-73
2021/09/02 10:54:23;;;;;;;8.27;4.10;;;18.40;99.90;;;;;;5073722;28;20124;-73
2021/09/02 10:56:54;;;;;;;8.32;4.07;;;18.40;99.90;;;;;;5071870;28;20392;-73
2021/09/02 10:59:44;;;;;;;10.85;4.47;;;18.40;99.90;;;;;;5072631;28;20032;-73
2021/09/02 11:02:17;;;;;;;11.35;4.03;;;18.40;99.90;;;;;;5073238;28;20048;-74
2021/09/02 11:04:56;;;;;;;6.95;3.70;;;18.50;99.90;;;;;;5071904;28;20102;-71
2021/09/02 11:07:37;;;;;;;12.15;4.18;;;18.50;99.90;;;;;;5072266;28;20052;-73
2021/09/02 11:10:14;;;;;;;8.85;4.03;;;18.50;99.90;;;;;;5076528;28;20044;-73
2021/09/02 11:12:40;;;;;;;8.60;4.28;;;18.50;99.90;;;;;;5077682;28;20473;-73
2021/09/02 11:15:07;;;;;;;9.05;4.32;;;18.50;99.90;;;;;;5072943;28;20068;-73
2021/09/02 11:17:33;;;;;;;9.80;4.10;;;18.50;99.90;;;;;;5071889;28;20044;-73
2021/09/02 11:19:58;;;;;;;10.90;4.57;;;18.40;99.90;;;;;;5072618;28;20517;-72
2021/09/02 11:22:24;;;;;;;9.38;4.45;;;18.50;99.90;;;;;;5078271;28;20089;-73
2021/09/02 11:24:51;;;;;;;8.10;4.18;;;18.60;99.90;;;;;;5092777;28;20404;-73
2021/09/02 11:27:28;;;;;;;8.70;4.68;;;18.60;99.90;;;;;;5093275;28;20079;-73
2021/09/02 11:30:10;;;;;;;9.23;4.60;;;18.70;99.90;;;;;;5091129;28;20113;-72
2021/09/02 11:32:35;;;;;;;10.68;4.05;;;18.60;99.90;;;;;;5091857;28;20468;-73
2021/09/02 11:35:02;;;;;;;10.00;4.75;;;18.60;99.90;;;;;;5092956;28;20039;-72
2021/09/02 11:37:39;;;;;;;13.07;4.75;;;18.60;99.90;;;;;;5093025;28;20127;-72
2021/09/02 11:40:06;;;;;;;10.13;3.75;;;18.60;99.90;;;;;;5092697;28;20042;-72
2021/09/02 11:42:33;;;;;;;13.13;4.35;;;18.50;99.90;;;;;;5092032;28;20044;-72
2021/09/02 11:45:00;;;;;;;7.78;4.20;;;18.50;99.90;;;;;;5092606;28;20036;-73
2021/09/02 11:47:33;;;;;;;10.52;5.03;;;18.50;99.90;;;;;;5092830;28;20032;-72
2021/09/02 11:49:59;;;;;;;;;;;18.50;99.90;;;;;;5092643;28;20494;-73
2021/09/02 11:52:35;;;;;;;12.68;5.38;;;18.50;99.90;;;;;;5092566;28;20011;-73
2021/09/02 11:55:01;;;;;;;7.97;4.53;;;18.50;99.90;;;;;;5093016;28;20036;-72
2021/09/02 11:57:27;;;;;;;10.90;4.32;;;18.50;99.90;;;;;;5074537;28;20406;-72
2021/09/02 11:59:52;;;;;;;7.63;4.07;;;18.60;99.90;;;;;;5093372;28;20125;-72
2021/09/02 12:02:18;;;;;;;11.75;4.10;;;18.70;99.90;;;;;;5096142;28;20040;-72
2021/09/02 12:04:51;;;;;;;12.05;4.65;;;18.70;99.90;;;;;;5094888;28;20077;-73
2021/09/02 12:07:18;;;;;;;8.00;4.68;;;18.60;99.90;;;;;;5096356;28;20115;-73
2021/09/02 12:09:48;;;;;;;9.88;4.53;;;18.60;99.90;;;;;;5095847;28;20040;-73
2021/09/02 12:12:26;;;;;;;8.75;3.92;;;18.60;99.90;;;;;;5096139;28;20036;-73
2021/09/02 12:14:52;;;;;;;9.85;4.25;;;18.60;99.90;;;;;;5095974;28;20464;-73
2021/09/02 12:17:17;;;;;;;10.20;4.22;;;18.40;99.90;;;;;;5094562;28;20082;-73
2021/09/02 12:20:01;;;;;;;9.32;4.68;;;18.20;99.90;;;;;;5093762;28;20411;-73
2021/09/02 12:22:36;;;;;;;10.25;4.30;;;18.10;99.90;;;;;;5095823;28;20040;-73
2021/09/02 12:25:17;;;;;;;12.73;4.75;;;18.30;99.90;;;;;;5095969;28;20050;-73
2021/09/02 12:27:54;;;;;;;10.20;5.50;;;18.30;99.90;;;;;;5095986;28;20039;-73
2021/09/02 12:30:43;;;;;;;9.85;4.68;;;18.40;99.90;;;;;;5094223;28;20123;-72
2021/09/02 12:33:17;;;;;;;5.97;4.20;;;18.60;99.90;;;;;;5077646;28;20044;-71
2021/09/02 12:35:44;;;;;;;10.32;4.40;;;18.60;99.90;;;;;;5095804;28;20350;-70
2021/09/02 12:38:34;;;;;;;6.32;4.45;;;18.70;99.90;;;;;;5095674;28;20138;-71
2021/09/02 12:41:21;;;;;;;9.00;4.93;;;18.70;99.90;;;;;;5095524;28;20040;-72
2021/09/02 12:44:05;;;;;;;9.15;4.80;;;18.80;99.90;;;;;;5095100;28;20369;-73
2021/09/02 12:46:51;;;;;;;10.63;5.20;;;18.80;99.90;;;;;;5095405;28;20036;-72